createdAt,value
2017-01-06T00:00:16.818Z,36.37
2017-01-06T00:00:42.391Z,36.37
2017-01-06T00:01:07.954Z,36.66
2017-01-06T00:01:33.543Z,36.95
2017-01-06T00:01:59.194Z,36.85
2017-01-06T00:02:24.736Z,36.95
2017-01-06T00:02:50.288Z,36.56
2017-01-06T00:03:15.893Z,36.76
2017-01-06T00:03:41.485Z,36.47
2017-01-06T00:04:07.071Z,36.95
2017-01-06T00:04:32.744Z,36.95
2017-01-06T00:04:58.360Z,36.76
2017-01-06T00:05:23.916Z,37.04
2017-01-06T00:05:49.468Z,37.24
2017-01-06T00:06:15.164Z,36.76
2017-01-06T00:06:40.788Z,36.76
2017-01-06T00:07:06.381Z,36.56
2017-01-06T00:07:31.975Z,36.85
2017-01-06T00:07:57.538Z,36.37
2017-01-06T00:08:23.092Z,37.14
2017-01-06T00:08:48.821Z,37.14
2017-01-06T00:09:14.394Z,37.24
2017-01-06T00:09:39.972Z,36.76
2017-01-06T00:10:05.547Z,36.76
2017-01-06T00:10:31.131Z,37.14
2017-01-06T00:10:56.713Z,36.95
2017-01-06T00:11:22.287Z,36.85
2017-01-06T00:11:47.850Z,37.14
2017-01-06T00:12:13.406Z,37.04
2017-01-06T00:12:38.984Z,37.04
2017-01-06T00:13:04.537Z,36.66
2017-01-06T00:13:30.124Z,36.76
2017-01-06T00:13:55.705Z,36.66
2017-01-06T00:14:21.282Z,37.14
2017-01-06T00:14:46.842Z,36.85
2017-01-06T00:15:12.416Z,37.04
2017-01-06T00:16:11.035Z,36.85
2017-01-06T00:16:36.608Z,36.76
2017-01-06T00:17:02.168Z,36.85
2017-01-06T00:17:27.874Z,36.85
2017-01-06T00:17:53.466Z,36.76
2017-01-06T00:18:19.031Z,36.85
2017-01-06T00:18:44.671Z,36.76
2017-01-06T00:19:10.254Z,36.95
2017-01-06T00:19:35.821Z,36.85
2017-01-06T00:20:01.407Z,36.76
2017-01-06T00:20:27.059Z,37.04
2017-01-06T00:20:52.631Z,36.85
2017-01-06T00:21:18.204Z,36.85
2017-01-06T00:21:43.768Z,36.95
2017-01-06T00:22:09.338Z,36.95
2017-01-06T00:22:34.903Z,36.85
2017-01-06T00:23:00.478Z,36.95
2017-01-06T00:23:26.054Z,36.95
2017-01-06T00:23:51.644Z,36.95
2017-01-06T00:24:17.191Z,36.95
2017-01-06T00:24:42.792Z,36.66
2017-01-06T00:25:08.345Z,36.66
2017-01-06T00:25:33.905Z,36.66
2017-01-06T00:25:59.473Z,36.95
2017-01-06T00:26:25.040Z,36.85
2017-01-06T00:26:50.595Z,36.95
2017-01-06T00:27:16.151Z,36.95
2017-01-06T00:27:41.839Z,36.95
2017-01-06T00:28:07.402Z,37.04
2017-01-06T00:28:32.984Z,36.85
2017-01-06T00:28:58.631Z,36.85
2017-01-06T00:29:24.273Z,36.76
2017-01-06T00:29:49.834Z,36.95
2017-01-06T00:30:15.483Z,36.66
2017-01-06T00:30:41.106Z,36.66
2017-01-06T00:31:06.658Z,36.85
2017-01-06T00:31:32.222Z,36.83
2017-01-06T00:31:57.788Z,36.95
2017-01-06T00:32:23.351Z,36.85
2017-01-06T00:32:48.912Z,36.83
2017-01-06T00:33:14.461Z,36.83
2017-01-06T00:33:40.015Z,36.76
2017-01-06T00:34:05.567Z,36.85
2017-01-06T00:34:31.140Z,36.66
2017-01-06T00:34:56.720Z,36.85
2017-01-06T00:35:22.295Z,36.76
2017-01-06T00:35:47.870Z,36.64
2017-01-06T00:36:13.423Z,36.76
2017-01-06T00:36:39.011Z,36.74
2017-01-06T00:37:04.541Z,36.95
2017-01-06T00:37:30.122Z,36.56
2017-01-06T00:37:55.809Z,36.66
2017-01-06T00:38:21.375Z,36.85
2017-01-06T00:38:46.938Z,36.56
2017-01-06T00:39:12.500Z,36.37
2017-01-06T00:39:38.132Z,36.47
2017-01-06T00:40:03.688Z,36.37
2017-01-06T00:40:29.247Z,36.47
2017-01-06T00:40:54.821Z,36.76
2017-01-06T00:41:20.403Z,36.76
2017-01-06T00:41:45.967Z,36.47
2017-01-06T00:42:11.519Z,36.76
2017-01-06T00:42:37.111Z,36.76
2017-01-06T00:43:02.756Z,36.66
2017-01-06T00:43:28.299Z,36.76
2017-01-06T00:43:53.872Z,36.37
2017-01-06T00:44:19.436Z,36.85
2017-01-06T00:44:45.071Z,36.56
2017-01-06T00:45:10.635Z,36.95
2017-01-06T00:45:36.208Z,36.76
2017-01-06T00:46:01.768Z,36.76
2017-01-06T00:46:27.318Z,36.76
2017-01-06T00:46:52.922Z,36.47
2017-01-06T00:47:18.491Z,36.76
2017-01-06T00:47:44.036Z,36.76
2017-01-06T00:48:09.623Z,36.47
2017-01-06T00:48:35.192Z,36.85
2017-01-06T00:49:00.759Z,36.85
2017-01-06T00:49:26.310Z,36.95
2017-01-06T00:49:51.879Z,36.76
2017-01-06T00:50:17.458Z,36.27
2017-01-06T00:50:43.045Z,36.37
2017-01-06T00:51:08.610Z,36.66
2017-01-06T00:51:34.159Z,36.56
2017-01-06T00:51:59.760Z,36.56
2017-01-06T00:52:25.330Z,36.27
2017-01-06T00:52:50.898Z,36.45
2017-01-06T00:53:16.475Z,36.56
2017-01-06T00:53:42.034Z,36.66
2017-01-06T00:54:07.602Z,36.47
2017-01-06T00:54:33.157Z,36.76
2017-01-06T00:54:58.735Z,36.66
2017-01-06T00:56:02.554Z,36.56
2017-01-06T00:57:49.393Z,36.54
2017-01-06T00:58:17.500Z,36.95
2017-01-06T00:58:43.053Z,36.85
2017-01-06T00:59:08.608Z,36.66
2017-01-06T00:59:34.184Z,36.64
2017-01-06T00:59:59.812Z,36.76
2017-01-06T01:00:25.360Z,36.76
2017-01-06T01:00:50.923Z,36.76
2017-01-06T01:01:16.585Z,36.76
2017-01-06T01:01:42.170Z,36.76
2017-01-06T01:02:07.727Z,36.76
2017-01-06T01:02:33.321Z,37.04
2017-01-06T01:02:58.930Z,37.04
2017-01-06T01:03:24.516Z,36.76
2017-01-06T01:03:50.091Z,36.85
2017-01-06T01:04:15.664Z,36.95
2017-01-06T01:04:41.227Z,36.85
2017-01-06T01:05:06.819Z,36.74
2017-01-06T01:05:32.372Z,36.85
2017-01-06T01:05:57.931Z,36.76
2017-01-06T01:06:23.498Z,36.76
2017-01-06T01:06:49.143Z,37.04
2017-01-06T01:07:14.711Z,36.76
2017-01-06T01:07:40.259Z,36.74
2017-01-06T01:08:05.846Z,36.76
2017-01-06T01:08:31.421Z,36.76
2017-01-06T01:08:56.969Z,36.76
2017-01-06T01:09:22.530Z,36.66
2017-01-06T01:09:48.099Z,36.76
2017-01-06T01:10:13.743Z,36.85
2017-01-06T01:10:39.311Z,36.95
2017-01-06T01:11:04.896Z,36.76
2017-01-06T01:11:30.463Z,36.76
2017-01-06T01:11:56.069Z,36.76
2017-01-06T01:12:21.623Z,36.76
2017-01-06T01:12:47.175Z,36.95
2017-01-06T01:13:12.748Z,36.66
2017-01-06T01:13:38.297Z,36.47
2017-01-06T01:14:03.850Z,36.47
2017-01-06T01:14:29.408Z,36.45
2017-01-06T01:14:54.967Z,36.27
2017-01-06T01:15:20.636Z,36.37
2017-01-06T01:15:46.200Z,36.56
2017-01-06T01:16:11.760Z,36.37
2017-01-06T01:16:37.329Z,36.47
2017-01-06T01:17:02.887Z,36.47
2017-01-06T01:17:28.439Z,36.37
2017-01-06T01:17:54.109Z,36.56
2017-01-06T01:18:19.668Z,36.56
2017-01-06T01:18:45.238Z,36.27
2017-01-06T01:19:10.800Z,36.47
2017-01-06T01:19:36.459Z,36.37
2017-01-06T01:20:02.026Z,36.37
2017-01-06T01:20:27.658Z,36.66
2017-01-06T01:20:53.216Z,36.37
2017-01-06T01:21:18.776Z,36.47
2017-01-06T01:21:44.343Z,36.56
2017-01-06T01:22:09.898Z,36.56
2017-01-06T01:22:35.459Z,36.37
2017-01-06T01:23:01.002Z,36.35
2017-01-06T01:23:26.583Z,36.37
2017-01-06T01:23:52.183Z,36.56
2017-01-06T01:24:17.817Z,36.47
2017-01-06T01:24:43.400Z,36.56
2017-01-06T01:25:08.953Z,36.47
2017-01-06T01:25:34.513Z,36.37
2017-01-06T01:26:00.168Z,36.27
2017-01-06T01:26:25.754Z,36.27
2017-01-06T01:26:51.284Z,36.56
2017-01-06T01:27:16.826Z,36.56
2017-01-06T01:27:42.390Z,36.66
2017-01-06T01:28:08.050Z,36.37
2017-01-06T01:28:33.605Z,36.37
2017-01-06T01:28:59.164Z,36.37
2017-01-06T01:29:24.726Z,36.47
2017-01-06T01:29:50.386Z,36.66
2017-01-06T01:30:15.967Z,36.27
2017-01-06T01:30:41.653Z,36.56
2017-01-06T01:31:07.250Z,36.27
2017-01-06T01:31:32.808Z,36.37
2017-01-06T01:31:58.354Z,36.66
2017-01-06T01:32:23.923Z,36.56
2017-01-06T01:32:49.509Z,36.47
2017-01-06T01:33:15.092Z,36.56
2017-01-06T01:33:40.784Z,36.56
2017-01-06T01:34:06.412Z,36.47
2017-01-06T01:34:31.971Z,36.37
2017-01-06T01:34:57.524Z,36.56
2017-01-06T01:35:23.079Z,36.66
2017-01-06T01:35:48.644Z,36.64
2017-01-06T01:36:14.203Z,36.47
2017-01-06T01:36:39.761Z,36.56
2017-01-06T01:37:05.317Z,36.66
2017-01-06T01:37:30.972Z,36.37
2017-01-06T01:37:56.592Z,36.47
2017-01-06T01:38:22.148Z,36.25
2017-01-06T01:38:47.818Z,36.64
2017-01-06T01:39:13.403Z,36.47
2017-01-06T01:39:38.964Z,36.47
2017-01-06T01:40:04.514Z,36.47
2017-01-06T01:40:30.113Z,36.56
2017-01-06T01:40:55.680Z,36.27
2017-01-06T01:41:21.250Z,36.47
2017-01-06T01:41:46.795Z,36.66
2017-01-06T01:42:12.349Z,36.56
2017-01-06T01:42:37.975Z,36.66
2017-01-06T01:43:03.525Z,36.45
2017-01-06T01:43:29.095Z,36.66
2017-01-06T01:43:54.655Z,36.47
2017-01-06T01:44:20.234Z,36.66
2017-01-06T01:44:45.790Z,36.47
2017-01-06T01:45:11.352Z,36.47
2017-01-06T01:45:36.919Z,36.37
2017-01-06T01:46:02.541Z,36.66
2017-01-06T01:46:28.127Z,36.66
2017-01-06T01:46:53.688Z,36.76
2017-01-06T01:47:19.252Z,36.66
2017-01-06T01:47:44.816Z,36.27
2017-01-06T01:48:10.369Z,36.56
2017-01-06T01:48:35.928Z,36.56
2017-01-06T01:49:01.512Z,36.56
2017-01-06T01:49:27.062Z,36.64
2017-01-06T01:49:52.733Z,36.56
2017-01-06T01:50:18.301Z,36.37
2017-01-06T01:50:43.843Z,36.37
2017-01-06T01:51:09.409Z,36.27
2017-01-06T01:51:34.941Z,36.37
2017-01-06T01:52:00.531Z,36.47
2017-01-06T01:52:26.110Z,36.47
2017-01-06T01:52:51.675Z,36.47
2017-01-06T01:53:17.248Z,36.56
2017-01-06T01:53:42.810Z,36.54
2017-01-06T01:54:08.370Z,36.37
2017-01-06T01:54:33.934Z,36.66
2017-01-06T01:54:59.502Z,36.37
2017-01-06T01:55:25.068Z,36.27
2017-01-06T01:55:50.687Z,36.56
2017-01-06T01:56:16.246Z,36.64
2017-01-06T01:56:41.810Z,35.97
2017-01-06T01:57:07.363Z,36.66
2017-01-06T01:57:32.943Z,36.66
2017-01-06T01:57:58.499Z,36.37
2017-01-06T01:58:24.051Z,36.27
2017-01-06T01:58:49.598Z,36.66
2017-01-06T01:59:15.171Z,36.47
2017-01-06T01:59:40.830Z,36.47
2017-01-06T02:00:06.418Z,36.37
2017-01-06T02:00:31.981Z,36.56
2017-01-06T02:00:57.558Z,36.27
2017-01-06T02:01:23.227Z,36.56
2017-01-06T02:01:48.778Z,36.47
2017-01-06T02:02:14.346Z,36.35
2017-01-06T02:02:40.018Z,36.66
2017-01-06T02:03:05.576Z,36.56
2017-01-06T02:03:31.146Z,36.66
2017-01-06T02:03:56.725Z,36.66
2017-01-06T02:04:22.301Z,36.66
2017-01-06T02:04:47.850Z,36.47
2017-01-06T02:05:13.424Z,36.47
2017-01-06T02:05:38.983Z,36.37
2017-01-06T02:06:04.528Z,36.35
2017-01-06T02:06:30.168Z,36.18
2017-01-06T02:06:55.731Z,36.66
2017-01-06T02:07:21.298Z,36.64
2017-01-06T02:07:46.889Z,36.37
2017-01-06T02:08:12.457Z,36.37
2017-01-06T02:08:38.016Z,36.66
2017-01-06T02:09:03.569Z,36.37
2017-01-06T02:09:29.141Z,36.66
2017-01-06T02:09:54.698Z,36.08
2017-01-06T02:10:20.262Z,36.47
2017-01-06T02:10:45.822Z,36.18
2017-01-06T02:11:11.382Z,36.18
2017-01-06T02:11:36.943Z,36.25
2017-01-06T02:12:02.482Z,36.66
2017-01-06T02:12:28.193Z,36.56
2017-01-06T02:12:53.759Z,35.99
2017-01-06T02:13:19.311Z,36.45
2017-01-06T02:13:44.922Z,36.64
2017-01-06T02:14:10.501Z,36.64
2017-01-06T02:14:36.091Z,36.08
2017-01-06T02:15:01.661Z,36.66
2017-01-06T02:15:27.327Z,36.76
2017-01-06T02:15:52.881Z,36.54
2017-01-06T02:16:18.541Z,36.66
2017-01-06T02:16:44.109Z,36.64
2017-01-06T02:17:09.659Z,36.66
2017-01-06T02:17:35.297Z,36.66
2017-01-06T02:18:00.861Z,36.27
2017-01-06T02:18:26.434Z,36.56
2017-01-06T02:18:52.002Z,36.76
2017-01-06T02:19:17.587Z,36.37
2017-01-06T02:19:43.131Z,36.66
2017-01-06T02:20:08.789Z,36.47
2017-01-06T02:20:34.350Z,36.47
2017-01-06T02:20:59.933Z,36.45
2017-01-06T02:21:25.597Z,36.54
2017-01-06T02:21:51.169Z,36.64
2017-01-06T02:22:16.723Z,36.56
2017-01-06T02:22:42.280Z,36.64
2017-01-06T02:23:07.882Z,36.47
2017-01-06T02:23:33.442Z,36.56
2017-01-06T02:24:32.008Z,36.66
2017-01-06T02:24:57.644Z,36.64
2017-01-06T02:25:23.203Z,36.37
2017-01-06T02:25:48.761Z,36.47
2017-01-06T02:26:14.326Z,36.56
2017-01-06T02:26:39.971Z,36.66
2017-01-06T02:27:05.546Z,36.64
2017-01-06T02:27:31.132Z,36.27
2017-01-06T02:27:56.819Z,36.66
2017-01-06T02:28:22.438Z,36.47
2017-01-06T02:28:48.005Z,36.56
2017-01-06T02:29:13.692Z,36.18
2017-01-06T02:29:39.295Z,36.66
2017-01-06T02:30:04.838Z,36.07
2017-01-06T02:30:30.398Z,36.16
2017-01-06T02:30:56.054Z,36.64
2017-01-06T02:31:21.617Z,36.74
2017-01-06T02:31:47.181Z,36.08
2017-01-06T02:32:12.752Z,36.56
2017-01-06T02:32:38.411Z,36.18
2017-01-06T02:33:03.964Z,36.18
2017-01-06T02:33:29.652Z,36.16
2017-01-06T02:33:55.227Z,36.27
2017-01-06T02:34:20.780Z,36.27
2017-01-06T02:34:46.344Z,36.25
2017-01-06T02:35:11.893Z,36.27
2017-01-06T02:35:37.453Z,36.18
2017-01-06T02:36:03.060Z,36.27
2017-01-06T02:36:28.622Z,36.08
2017-01-06T02:36:54.186Z,36.16
2017-01-06T02:37:19.753Z,36.18
2017-01-06T02:37:45.307Z,36.16
2017-01-06T02:38:10.880Z,36.27
2017-01-06T02:38:36.434Z,36.16
2017-01-06T02:39:01.988Z,36.18
2017-01-06T02:39:27.572Z,36.18
2017-01-06T02:39:53.125Z,36.37
2017-01-06T02:40:18.665Z,36.27
2017-01-06T02:40:44.248Z,36.25
2017-01-06T02:41:09.797Z,36.07
2017-01-06T02:41:35.346Z,36.27
2017-01-06T02:42:00.968Z,36.16
2017-01-06T02:42:26.520Z,36.16
2017-01-06T02:42:52.095Z,36.25
2017-01-06T02:43:17.654Z,36.08
2017-01-06T02:43:43.224Z,36.25
2017-01-06T02:44:08.790Z,36.18
2017-01-06T02:44:34.340Z,36.18
2017-01-06T02:44:59.903Z,36.25
2017-01-06T02:45:25.471Z,36.27
2017-01-06T02:45:51.055Z,36.18
2017-01-06T02:46:16.647Z,36.18
2017-01-06T02:46:42.219Z,36.16
2017-01-06T02:47:07.766Z,36.25
2017-01-06T02:47:33.328Z,36.25
2017-01-06T02:47:58.919Z,36.25
2017-01-06T02:48:24.492Z,36.27
2017-01-06T02:48:50.045Z,36.25
2017-01-06T02:49:15.775Z,35.99
2017-01-06T02:49:41.369Z,36.37
2017-01-06T02:50:06.950Z,36.27
2017-01-06T02:50:32.552Z,36.08
2017-01-06T02:50:58.116Z,36.18
2017-01-06T02:51:23.658Z,36.08
2017-01-06T02:51:49.225Z,35.99
2017-01-06T02:52:14.809Z,35.99
2017-01-06T02:52:40.357Z,35.89
2017-01-06T02:53:05.916Z,35.89
2017-01-06T02:53:31.520Z,36.08
2017-01-06T02:53:57.091Z,35.89
2017-01-06T02:55:00.853Z,35.99
2017-01-06T02:55:26.405Z,35.77
2017-01-06T02:55:51.970Z,35.99
2017-01-06T02:56:17.570Z,35.89
2017-01-06T02:56:43.203Z,35.99
2017-01-06T02:57:08.754Z,35.87
2017-01-06T02:57:34.309Z,35.89
2017-01-06T02:57:59.933Z,36.27
2017-01-06T02:58:25.507Z,35.89
2017-01-06T02:58:51.069Z,35.99
2017-01-06T02:59:16.637Z,36.08
2017-01-06T02:59:42.293Z,36.08
2017-01-06T03:00:07.832Z,36.27
2017-01-06T03:00:33.411Z,36.27
2017-01-06T03:00:58.987Z,36.18
2017-01-06T03:01:24.624Z,36.27
2017-01-06T03:01:50.203Z,36.27
2017-01-06T03:02:15.751Z,36.25
2017-01-06T03:02:41.303Z,35.79
2017-01-06T03:03:06.965Z,35.89
2017-01-06T03:03:32.500Z,35.99
2017-01-06T03:03:58.072Z,35.89
2017-01-06T03:04:23.717Z,36.25
2017-01-06T03:04:49.314Z,36.27
2017-01-06T03:05:14.859Z,36.37
2017-01-06T03:05:40.425Z,36.37
2017-01-06T03:06:06.128Z,36.27
2017-01-06T03:06:31.689Z,36.27
2017-01-06T03:06:57.298Z,36.08
2017-01-06T03:07:22.941Z,35.87
2017-01-06T03:07:48.497Z,35.89
2017-01-06T03:08:14.047Z,35.97
2017-01-06T03:08:39.760Z,36.18
2017-01-06T03:09:05.378Z,36.37
2017-01-06T03:09:30.957Z,36.08
2017-01-06T03:09:56.516Z,36.27
2017-01-06T03:10:22.084Z,36.18
2017-01-06T03:10:47.647Z,36.08
2017-01-06T03:11:13.197Z,36.08
2017-01-06T03:11:38.750Z,36.18
2017-01-06T03:12:04.310Z,36.25
2017-01-06T03:12:29.954Z,36.08
2017-01-06T03:12:55.542Z,36.07
2017-01-06T03:13:21.119Z,35.99
2017-01-06T03:13:46.683Z,35.99
2017-01-06T03:14:12.309Z,36.08
2017-01-06T03:14:37.858Z,35.97
2017-01-06T03:15:03.418Z,35.99
2017-01-06T03:15:29.013Z,36.08
2017-01-06T03:15:54.594Z,35.77
2017-01-06T03:16:20.177Z,35.87
2017-01-06T03:16:45.712Z,35.87
2017-01-06T03:17:11.266Z,35.89
2017-01-06T03:17:36.898Z,35.89
2017-01-06T03:18:02.479Z,35.77
2017-01-06T03:18:28.044Z,35.99
2017-01-06T03:18:53.613Z,36.07
2017-01-06T03:19:19.169Z,36.08
2017-01-06T03:19:44.723Z,36.08
2017-01-06T03:20:10.284Z,36.18
2017-01-06T03:20:35.841Z,35.97
2017-01-06T03:21:01.405Z,36.27
2017-01-06T03:21:27.035Z,36.18
2017-01-06T03:21:52.596Z,36.18
2017-01-06T03:22:18.156Z,35.99
2017-01-06T03:22:43.737Z,36.08
2017-01-06T03:23:09.329Z,36.07
2017-01-06T03:23:34.885Z,36.25
2017-01-06T03:24:00.458Z,36.27
2017-01-06T03:24:26.007Z,36.27
2017-01-06T03:24:51.619Z,36.27
2017-01-06T03:25:17.503Z,36.27
2017-01-06T03:25:43.105Z,35.79
2017-01-06T03:26:08.660Z,35.77
2017-01-06T03:26:34.214Z,35.87
2017-01-06T03:26:59.781Z,35.99
2017-01-06T03:27:25.324Z,35.77
2017-01-06T03:27:50.919Z,36.16
2017-01-06T03:28:16.495Z,36.08
2017-01-06T03:28:42.102Z,35.89
2017-01-06T03:29:07.661Z,35.99
2017-01-06T03:29:33.220Z,36.18
2017-01-06T03:29:58.801Z,35.97
2017-01-06T03:30:24.360Z,35.97
2017-01-06T03:30:50.060Z,35.79
2017-01-06T03:31:15.609Z,35.89
2017-01-06T03:31:41.167Z,36.37
2017-01-06T03:32:06.718Z,35.89
2017-01-06T03:32:32.341Z,36.27
2017-01-06T03:32:57.894Z,36.25
2017-01-06T03:33:23.457Z,36.27
2017-01-06T03:33:49.037Z,36.08
2017-01-06T03:34:14.608Z,36.27
2017-01-06T03:34:40.260Z,36.07
2017-01-06T03:35:05.839Z,36.18
2017-01-06T03:35:31.405Z,36.27
2017-01-06T03:35:57.026Z,36.27
2017-01-06T03:36:22.608Z,36.25
2017-01-06T03:36:48.158Z,36.27
2017-01-06T03:37:13.749Z,36.18
2017-01-06T03:37:39.418Z,36.07
2017-01-06T03:38:05.021Z,35.99
2017-01-06T03:38:30.588Z,36.08
2017-01-06T03:38:56.254Z,36.27
2017-01-06T03:39:21.816Z,36.27
2017-01-06T03:39:47.507Z,36.27
2017-01-06T03:40:13.095Z,35.89
2017-01-06T03:40:38.676Z,36.08
2017-01-06T03:41:04.247Z,36.37
2017-01-06T03:41:29.804Z,36.27
2017-01-06T03:41:55.420Z,36.07
2017-01-06T03:42:20.956Z,35.99
2017-01-06T03:42:46.527Z,36.27
2017-01-06T03:43:12.095Z,35.99
2017-01-06T03:43:37.676Z,36.07
2017-01-06T03:44:03.278Z,35.89
2017-01-06T03:44:28.843Z,35.79
2017-01-06T03:44:54.398Z,36.08
2017-01-06T03:45:20.064Z,36.18
2017-01-06T03:45:45.634Z,36.07
2017-01-06T03:46:11.209Z,35.89
2017-01-06T03:46:36.804Z,35.89
2017-01-06T03:47:02.426Z,35.87
2017-01-06T03:47:27.998Z,35.77
2017-01-06T03:47:53.559Z,35.87
2017-01-06T03:48:19.229Z,35.99
2017-01-06T03:48:44.791Z,35.97
2017-01-06T03:49:10.342Z,35.77
2017-01-06T03:49:35.910Z,35.89
2017-01-06T03:50:01.477Z,35.87
2017-01-06T03:50:27.024Z,35.68
2017-01-06T03:50:52.583Z,35.79
2017-01-06T03:51:18.144Z,35.89
2017-01-06T03:51:43.822Z,35.89
2017-01-06T03:52:09.417Z,35.87
2017-01-06T03:52:34.987Z,35.89
2017-01-06T03:53:00.623Z,35.79
2017-01-06T03:53:26.214Z,35.79
2017-01-06T03:53:51.780Z,35.89
2017-01-06T03:54:17.460Z,35.89
2017-01-06T03:54:43.032Z,35.79
2017-01-06T03:55:08.589Z,35.97
2017-01-06T03:55:34.168Z,35.97
2017-01-06T03:55:59.840Z,35.89
2017-01-06T03:56:25.423Z,35.7
2017-01-06T03:56:50.978Z,35.7
2017-01-06T03:57:16.528Z,35.99
2017-01-06T03:57:42.096Z,35.87
2017-01-06T03:58:07.672Z,35.87
2017-01-06T03:58:33.220Z,35.79
2017-01-06T03:58:58.772Z,35.77
2017-01-06T03:59:24.330Z,35.87
2017-01-06T03:59:49.923Z,35.89
2017-01-06T04:00:15.489Z,35.6
2017-01-06T04:00:41.050Z,35.6
2017-01-06T04:01:06.760Z,35.87
2017-01-06T04:01:32.366Z,35.79
2017-01-06T04:01:57.927Z,35.6
2017-01-06T04:02:23.499Z,35.7
2017-01-06T04:02:49.187Z,35.79
2017-01-06T04:03:14.749Z,35.79
2017-01-06T04:03:40.315Z,35.7
2017-01-06T04:04:05.983Z,35.58
2017-01-06T04:04:31.588Z,35.79
2017-01-06T04:04:57.143Z,35.68
2017-01-06T04:05:22.716Z,35.58
2017-01-06T04:05:48.419Z,35.77
2017-01-06T04:06:13.976Z,35.7
2017-01-06T04:06:39.541Z,35.68
2017-01-06T04:07:05.138Z,35.6
2017-01-06T04:07:30.683Z,35.7
2017-01-06T04:07:56.245Z,35.68
2017-01-06T04:08:21.825Z,35.58
2017-01-06T04:08:47.396Z,35.68
2017-01-06T04:09:12.996Z,35.7
2017-01-06T04:09:38.560Z,35.99
2017-01-06T04:10:04.132Z,35.89
2017-01-06T04:10:29.771Z,35.68
2017-01-06T04:10:55.391Z,35.79
2017-01-06T04:11:20.961Z,35.77
2017-01-06T04:11:46.540Z,35.7
2017-01-06T04:12:12.155Z,35.7
2017-01-06T04:12:37.709Z,35.77
2017-01-06T04:13:03.266Z,35.68
2017-01-06T04:13:28.828Z,35.77
2017-01-06T04:13:54.398Z,35.58
2017-01-06T04:14:19.966Z,35.6
2017-01-06T04:14:45.528Z,35.79
2017-01-06T04:15:11.120Z,35.68
2017-01-06T04:15:36.664Z,35.58
2017-01-06T04:16:02.225Z,35.6
2017-01-06T04:16:27.790Z,35.6
2017-01-06T04:16:53.380Z,35.77
2017-01-06T04:17:18.944Z,35.79
2017-01-06T04:17:44.510Z,35.7
2017-01-06T04:18:10.084Z,35.6
2017-01-06T04:18:35.659Z,35.7
2017-01-06T04:19:01.211Z,35.6
2017-01-06T04:19:26.906Z,35.7
2017-01-06T04:19:52.457Z,35.6
2017-01-06T04:20:18.024Z,35.77
2017-01-06T04:20:43.583Z,35.6
2017-01-06T04:21:09.230Z,35.68
2017-01-06T04:21:34.789Z,35.6
2017-01-06T04:22:00.350Z,35.49
2017-01-06T04:22:25.936Z,35.6
2017-01-06T04:22:51.490Z,35.6
2017-01-06T04:23:17.075Z,35.89
2017-01-06T04:23:42.641Z,35.58
2017-01-06T04:24:08.197Z,35.58
2017-01-06T04:24:33.771Z,35.6
2017-01-06T04:24:59.339Z,35.49
2017-01-06T04:25:24.913Z,35.6
2017-01-06T04:25:50.469Z,35.6
2017-01-06T04:26:16.034Z,35.5
2017-01-06T04:26:41.673Z,35.6
2017-01-06T04:27:07.287Z,35.7
2017-01-06T04:27:32.838Z,35.79
2017-01-06T04:27:58.383Z,35.7
2017-01-06T04:28:24.077Z,35.79
2017-01-06T04:28:49.624Z,35.79
2017-01-06T04:29:15.191Z,35.6
2017-01-06T04:30:29.220Z,35.7
2017-01-06T04:30:54.780Z,35.7
2017-01-06T04:31:20.342Z,35.58
2017-01-06T04:31:45.964Z,35.7
2017-01-06T04:32:11.549Z,35.7
2017-01-06T04:32:37.107Z,35.79
2017-01-06T04:33:02.669Z,35.6
2017-01-06T04:33:28.344Z,35.6
2017-01-06T04:33:53.911Z,35.7
2017-01-06T04:34:19.473Z,35.89
2017-01-06T04:34:45.046Z,35.5
2017-01-06T04:35:10.615Z,35.5
2017-01-06T04:35:36.197Z,35.5
2017-01-06T04:36:01.743Z,35.5
2017-01-06T04:36:27.298Z,35.7
2017-01-06T04:36:52.965Z,35.7
2017-01-06T04:37:18.520Z,35.6
2017-01-06T04:37:44.082Z,35.6
2017-01-06T04:38:09.648Z,35.7
2017-01-06T04:38:35.316Z,35.6
2017-01-06T04:39:00.901Z,35.7
2017-01-06T04:39:26.474Z,35.79
2017-01-06T04:39:52.160Z,35.79
2017-01-06T04:40:17.719Z,35.7
2017-01-06T04:40:43.272Z,35.58
2017-01-06T04:41:08.830Z,35.79
2017-01-06T04:41:34.398Z,35.6
2017-01-06T04:41:59.981Z,35.6
2017-01-06T04:42:25.550Z,35.79
2017-01-06T04:42:51.134Z,35.6
2017-01-06T04:43:16.696Z,35.5
2017-01-06T04:43:42.283Z,35.7
2017-01-06T04:44:07.849Z,35.5
2017-01-06T04:44:33.399Z,35.6
2017-01-06T04:44:59.108Z,35.6
2017-01-06T04:45:24.663Z,35.5
2017-01-06T04:45:50.220Z,35.7
2017-01-06T04:46:15.783Z,35.5
2017-01-06T04:46:41.355Z,35.5
2017-01-06T04:47:06.919Z,35.79
2017-01-06T04:47:32.476Z,35.7
2017-01-06T04:47:58.017Z,35.6
2017-01-06T04:48:23.646Z,35.7
2017-01-06T04:48:49.294Z,35.79
2017-01-06T04:49:14.856Z,35.7
2017-01-06T04:49:40.453Z,35.5
2017-01-06T04:50:06.001Z,35.6
2017-01-06T04:50:31.613Z,35.6
2017-01-06T04:50:57.169Z,35.89
2017-01-06T04:51:22.721Z,35.79
2017-01-06T04:51:48.278Z,35.79
2017-01-06T04:52:13.862Z,35.7
2017-01-06T04:52:39.496Z,35.7
2017-01-06T04:53:05.037Z,35.79
2017-01-06T04:53:30.695Z,35.6
2017-01-06T04:53:56.252Z,35.6
2017-01-06T04:54:21.810Z,35.6
2017-01-06T04:54:47.375Z,35.7
2017-01-06T04:55:13.110Z,35.6
2017-01-06T04:55:38.666Z,35.6
2017-01-06T04:56:04.239Z,35.6
2017-01-06T04:56:29.811Z,35.6
2017-01-06T04:56:55.400Z,35.7
2017-01-06T04:57:20.973Z,35.7
2017-01-06T04:57:46.530Z,35.6
2017-01-06T04:58:12.109Z,35.7
2017-01-06T04:58:37.670Z,35.89
2017-01-06T04:59:03.271Z,35.6
2017-01-06T04:59:28.837Z,35.6
2017-01-06T04:59:54.389Z,35.6
2017-01-06T05:00:19.958Z,35.7
2017-01-06T05:00:45.516Z,35.79
2017-01-06T05:01:11.077Z,35.5
2017-01-06T05:01:36.648Z,35.6
2017-01-06T05:02:02.212Z,35.6
2017-01-06T05:02:27.769Z,35.7
2017-01-06T05:02:53.348Z,35.6
2017-01-06T05:03:18.916Z,35.31
2017-01-06T05:03:44.477Z,35.5
2017-01-06T05:04:10.039Z,35.5
2017-01-06T05:04:35.586Z,35.5
2017-01-06T05:05:01.158Z,35.5
2017-01-06T05:05:26.705Z,35.5
2017-01-06T05:05:52.269Z,35.41
2017-01-06T05:06:17.828Z,35.31
2017-01-06T05:06:43.387Z,35.41
2017-01-06T05:07:08.960Z,35.5
2017-01-06T05:07:34.571Z,35.41
2017-01-06T05:08:00.140Z,35.31
2017-01-06T05:08:25.745Z,35.41
2017-01-06T05:08:51.390Z,35.41
2017-01-06T05:09:16.956Z,35.41
2017-01-06T05:09:42.541Z,35.41
2017-01-06T05:10:08.170Z,35.5
2017-01-06T05:10:33.741Z,35.41
2017-01-06T05:10:59.297Z,35.41
2017-01-06T05:11:24.864Z,35.31
2017-01-06T05:11:50.441Z,35.41
2017-01-06T05:12:15.985Z,35.41
2017-01-06T05:12:41.557Z,35.31
2017-01-06T05:13:07.118Z,35.31
2017-01-06T05:13:32.680Z,35.22
2017-01-06T05:13:58.296Z,35.31
2017-01-06T05:14:23.901Z,35.31
2017-01-06T05:14:49.480Z,35.41
2017-01-06T05:15:15.048Z,35.41
2017-01-06T05:15:40.621Z,35.41
2017-01-06T05:16:06.165Z,35.41
2017-01-06T05:16:31.722Z,35.31
2017-01-06T05:16:57.270Z,35.31
2017-01-06T05:17:22.893Z,35.31
2017-01-06T05:17:48.459Z,35.41
2017-01-06T05:18:14.015Z,35.41
2017-01-06T05:18:39.620Z,35.5
2017-01-06T05:19:05.181Z,35.31
2017-01-06T05:19:30.749Z,35.5
2017-01-06T05:19:56.322Z,35.22
2017-01-06T05:20:21.906Z,35.5
2017-01-06T05:20:47.466Z,35.31
2017-01-06T05:21:13.194Z,35.31
2017-01-06T05:21:38.819Z,35.41
2017-01-06T05:22:04.516Z,35.31
2017-01-06T05:22:30.088Z,35.31
2017-01-06T05:22:55.663Z,35.41
2017-01-06T05:23:21.367Z,35.41
2017-01-06T05:23:46.946Z,35.41
2017-01-06T05:24:12.517Z,35.31
2017-01-06T05:24:38.188Z,35.41
2017-01-06T05:25:03.743Z,35.31
2017-01-06T05:25:29.308Z,35.31
2017-01-06T05:25:54.925Z,35.31
2017-01-06T05:26:20.515Z,35.41
2017-01-06T05:26:46.089Z,35.31
2017-01-06T05:27:11.696Z,35.31
2017-01-06T05:27:37.299Z,35.31
2017-01-06T05:28:02.850Z,35.31
2017-01-06T05:28:28.535Z,35.41
2017-01-06T05:28:54.106Z,35.22
2017-01-06T05:29:19.657Z,35.41
2017-01-06T05:29:45.243Z,35.31
2017-01-06T05:30:10.943Z,35.31
2017-01-06T05:30:36.527Z,35.31
2017-01-06T05:31:02.102Z,35.5
2017-01-06T05:31:27.769Z,35.41
2017-01-06T05:31:53.308Z,35.31
2017-01-06T05:32:18.870Z,35.41
2017-01-06T05:32:44.431Z,35.5
2017-01-06T05:33:09.987Z,35.22
2017-01-06T05:33:35.551Z,35.41
2017-01-06T05:34:01.119Z,35.31
2017-01-06T05:34:26.688Z,35.31
2017-01-06T05:34:52.254Z,35.31
2017-01-06T05:35:17.964Z,35.22
2017-01-06T05:35:43.519Z,35.31